Time;durP1;ratioP1;P1;durP2;ratioP2;P2;SDS_P1;SDS_P2;PMS_P1;PMS_P2;Temp;Humidity;BMP_temperature;BMP_pressure;BME280_temperature;BME280_humidity;BME280_pressure;Samples;Min_cycle;Max_cycle;Signal;HPM_P1;HPM_P2
2022/11/20 00:00:43;;;;;;;38.57;36.77;;;;;;;1.40;100.00;101177.84;5012652;28;20469;-44
2022/11/20 00:03:11;;;;;;;36.60;35.10;;;;;;;1.44;100.00;101184.50;5013660;28;20448;-45
2022/11/20 00:05:39;;;;;;;37.40;35.50;;;;;;;1.37;100.00;101188.59;5013525;28;20477;-47
2022/11/20 00:08:06;;;;;;;36.27;34.60;;;;;;;1.36;100.00;101181.69;5013337;28;20459;-43
2022/11/20 00:10:37;;;;;;;35.97;33.97;;;;;;;1.35;100.00;101184.41;5013093;28;20468;-45
2022/11/20 00:13:04;;;;;;;35.63;33.83;;;;;;;1.32;100.00;101184.66;5012905;28;20436;-45
2022/11/20 00:15:34;;;;;;;36.43;34.83;;;;;;;1.30;100.00;101176.94;5013088;28;20491;-47
2022/11/20 00:18:01;;;;;;;35.57;33.80;;;;;;;1.29;100.00;101177.03;5013301;28;20445;-45
2022/11/20 00:20:29;;;;;;;37.30;35.30;;;;;;;1.31;100.00;101178.59;5012700;28;20461;-43
2022/11/20 00:22:57;;;;;;;35.73;34.13;;;;;;;1.31;100.00;101168.09;5013073;28;20503;-46
2022/11/20 00:25:25;;;;;;;37.00;34.83;;;;;;;1.28;100.00;101163.09;5013220;28;20441;-42
2022/11/20 00:27:52;;;;;;;35.17;33.47;;;;;;;1.29;100.00;101164.75;5013084;28;20511;-44
2022/11/20 00:30:20;;;;;;;35.00;33.47;;;;;;;1.27;100.00;101155.31;5013134;28;20460;-45
2022/11/20 00:32:49;;;;;;;35.77;34.17;;;;;;;1.26;100.00;101167.63;5013041;28;20433;-44
2022/11/20 00:35:16;;;;;;;36.13;34.53;;;;;;;1.24;100.00;101166.91;5013583;28;20444;-45
2022/11/20 00:37:44;;;;;;;35.23;33.53;;;;;;;1.23;100.00;101169.66;5013098;28;20433;-46
2022/11/20 00:40:13;;;;;;;36.83;34.90;;;;;;;1.19;100.00;101171.72;5012637;28;20437;-46
2022/11/20 00:42:40;;;;;;;36.30;34.70;;;;;;;1.15;100.00;101172.09;5012704;28;20441;-44
2022/11/20 00:45:08;;;;;;;38.17;35.90;;;;;;;1.10;100.00;101173.31;5013429;28;20432;-44
2022/11/20 00:47:36;;;;;;;36.07;34.00;;;;;;;1.07;100.00;101168.31;5013141;28;20520;-43
2022/11/20 00:50:05;;;;;;;37.07;35.30;;;;;;;1.08;100.00;101172.59;5012676;28;20440;-42
2022/11/20 00:52:33;;;;;;;37.63;35.73;;;;;;;1.03;100.00;101169.50;5024416;28;20849;-44
2022/11/20 00:55:00;;;;;;;38.23;36.43;;;;;;;1.06;100.00;101177.16;5032929;28;20932;-44
2022/11/20 00:57:28;;;;;;;37.23;35.53;;;;;;;1.06;100.00;101166.63;5032930;28;20432;-45
2022/11/20 00:59:56;;;;;;;36.53;34.80;;;;;;;1.09;100.00;101165.53;5032819;28;20510;-44
2022/11/20 01:02:23;;;;;;;36.50;34.27;;;;;;;1.11;100.00;101166.25;5032027;28;20467;-44
2022/11/20 01:04:51;;;;;;;35.30;33.50;;;;;;;1.08;100.00;101166.50;5033138;28;20471;-44
2022/11/20 01:07:20;;;;;;;36.13;34.27;;;;;;;1.10;100.00;101159.34;5032700;28;20475;-45
2022/11/20 01:09:47;;;;;;;36.67;34.77;;;;;;;1.10;100.00;101165.44;5032547;28;20462;-44
2022/11/20 01:12:15;;;;;;;36.80;34.80;;;;;;;1.08;100.00;101162.09;5031984;28;20510;-45
2022/11/20 01:14:42;;;;;;;35.30;33.50;;;;;;;1.10;100.00;101164.59;5032956;28;20437;-44
2022/11/20 01:17:10;;;;;;;36.00;34.10;;;;;;;1.15;100.00;101156.31;5032432;28;20490;-44
2022/11/20 01:19:38;;;;;;;35.47;33.70;;;;;;;1.18;100.00;101156.06;5032593;28;20456;-45
2022/11/20 01:22:05;;;;;;;35.50;33.80;;;;;;;1.16;100.00;101160.63;5031803;28;20468;-45
2022/11/20 01:24:34;;;;;;;35.27;33.67;;;;;;;1.17;100.00;101143.88;5032657;28;20436;-46
2022/11/20 01:27:02;;;;;;;36.33;34.57;;;;;;;1.13;100.00;101150.38;5032374;28;20472;-45
2022/11/20 01:29:30;;;;;;;35.87;34.10;;;;;;;1.09;100.00;101144.53;5032110;28;20452;-44
2022/11/20 01:31:57;;;;;;;36.37;34.47;;;;;;;1.12;100.00;101149.53;5031387;28;20879;-46
2022/11/20 01:34:25;;;;;;;37.43;35.63;;;;;;;1.14;100.00;101144.97;5032102;28;20490;-45
2022/11/20 01:36:53;;;;;;;36.27;34.60;;;;;;;1.13;100.00;101132.81;5031940;28;20493;-44
2022/11/20 01:39:22;;;;;;;36.13;34.00;;;;;;;1.18;100.00;101135.06;5031696;28;20468;-43
2022/11/20 01:44:56;;;;;;;39.10;36.77;;;;;;;1.15;100.00;101132.69;5031711;28;20938;-43
2022/11/20 01:47:29;;;;;;;36.33;34.73;;;;;;;1.14;100.00;101129.22;5031893;28;20529;-45
2022/11/20 01:50:02;;;;;;;38.20;36.37;;;;;;;1.12;100.00;101133.78;5031793;28;20448;-45
2022/11/20 01:52:34;;;;;;;37.40;35.80;;;;;;;1.15;100.00;101132.69;5031128;28;20953;-43
2022/11/20 01:55:08;;;;;;;38.83;37.13;;;;;;;1.12;100.00;101123.28;5031557;28;20467;-45
2022/11/20 01:57:39;;;;;;;37.33;35.53;;;;;;;1.16;100.00;101126.50;5033232;28;20468;-45
2022/11/20 02:00:10;;;;;;;38.10;36.07;;;;;;;1.14;100.00;101123.97;5035057;28;20485;-44
2022/11/20 02:02:40;;;;;;;37.17;35.57;;;;;;;1.15;100.00;101123.03;5035424;28;20428;-47
2022/11/20 02:05:15;;;;;;;36.57;34.90;;;;;;;1.12;100.00;101118.03;5035793;28;20913;-45
2022/11/20 02:07:43;;;;;;;37.67;35.87;;;;;;;1.19;100.00;101123.59;5035640;28;20548;-45
2022/11/20 02:10:12;;;;;;;36.30;34.57;;;;;;;1.18;100.00;101114.03;5034999;28;20954;-45
2022/11/20 02:15:26;;;;;;;37.90;35.90;;;;;;;1.17;100.00;101100.06;5035857;28;20440;-44
2022/11/20 02:17:57;;;;;;;37.73;35.80;;;;;;;1.18;100.00;101098.28;5035581;28;20977;-48
2022/11/20 02:20:25;;;;;;;37.23;35.37;;;;;;;1.17;100.00;101094.81;5034939;28;20463;-45
2022/11/20 02:22:58;;;;;;;37.07;35.40;;;;;;;1.17;100.00;101089.56;5035440;28;20439;-44
2022/11/20 02:25:28;;;;;;;37.20;35.40;;;;;;;1.17;100.00;101088.72;5035623;28;20428;-43
2022/11/20 02:27:56;;;;;;;36.63;35.13;;;;;;;1.18;100.00;101090.41;5035618;28;20475;-45
2022/11/20 02:30:24;;;;;;;36.50;35.00;;;;;;;1.11;100.00;101093.53;5035358;28;20464;-45
2022/11/20 02:32:52;;;;;;;36.60;34.90;;;;;;;1.12;100.00;101089.13;5035138;28;20439;-43
2022/11/20 02:35:40;;;;;;;36.80;35.10;;;;;;;1.07;100.00;101089.53;5035155;28;20428;-44
2022/11/20 02:38:08;;;;;;;37.00;35.07;;;;;;;1.11;100.00;101087.44;5031436;28;20464;-45
2022/11/20 02:40:37;;;;;;;37.03;35.23;;;;;;;1.15;100.00;101094.13;5034905;28;20864;-45
2022/11/20 02:43:04;;;;;;;38.20;36.40;;;;;;;1.10;100.00;101088.44;5034905;28;20436;-45
2022/11/20 02:45:32;;;;;;;38.37;36.60;;;;;;;1.04;100.00;101088.94;5034808;28;20501;-45
2022/11/20 02:48:00;;;;;;;39.03;37.30;;;;;;;1.07;100.00;101089.53;5034707;28;20476;-46
2022/11/20 02:50:27;;;;;;;37.50;35.77;;;;;;;1.07;100.00;101079.03;5034504;28;20517;-46
2022/11/20 02:52:55;;;;;;;38.47;36.67;;;;;;;1.09;100.00;101082.34;5034501;28;20439;-46
2022/11/20 02:55:22;;;;;;;40.03;38.00;;;;;;;1.08;100.00;101083.28;5034716;28;20459;-44
2022/11/20 02:57:51;;;;;;;40.33;37.93;;;;;;;1.10;100.00;101088.44;5034309;28;20424;-44
2022/11/20 03:00:19;;;;;;;38.50;36.63;;;;;;;1.06;100.00;101089.63;5033956;28;20440;-44
2022/11/20 03:02:47;;;;;;;38.67;36.87;;;;;;;1.09;100.00;101086.75;5034239;28;20435;-44
2022/11/20 03:05:15;;;;;;;36.57;34.87;;;;;;;1.07;100.00;101092.16;5034173;28;20436;-45
2022/11/20 03:07:44;;;;;;;36.63;34.93;;;;;;;1.09;100.00;101094.63;5033813;28;20876;-46
2022/11/20 03:10:12;;;;;;;36.50;34.80;;;;;;;1.17;100.00;101093.97;5032820;28;20436;-44
2022/11/20 03:12:39;;;;;;;35.33;33.67;;;;;;;1.21;100.00;101085.75;5033829;28;20768;-44
2022/11/20 03:15:10;;;;;;;35.43;33.80;;;;;;;1.19;100.00;101092.91;5034150;28;20432;-43
2022/11/20 03:17:37;;;;;;;36.67;34.90;;;;;;;1.21;100.00;101096.25;5033948;28;20429;-46
2022/11/20 03:20:06;;;;;;;37.00;35.40;;;;;;;1.23;100.00;101090.84;5033319;28;20968;-44
2022/11/20 03:22:34;;;;;;;35.93;34.20;;;;;;;1.21;100.00;101090.16;5033782;28;20486;-43
2022/11/20 03:25:01;;;;;;;36.63;34.93;;;;;;;1.22;100.00;101084.78;5033693;28;20439;-44
2022/11/20 03:27:33;;;;;;;36.43;34.83;;;;;;;1.23;100.00;101086.44;5033579;28;20472;-46
2022/11/20 03:30:01;;;;;;;39.00;36.87;;;;;;;1.20;100.00;101081.44;5033560;28;20424;-44
2022/11/20 03:32:30;;;;;;;38.13;36.43;;;;;;;1.21;100.00;101088.38;5033728;28;20580;-45
2022/11/20 03:34:57;;;;;;;37.73;36.20;;;;;;;1.24;100.00;101085.47;5033804;28;20490;-45
2022/11/20 03:37:25;;;;;;;39.90;38.10;;;;;;;1.23;100.00;101083.81;5033668;28;20938;-44
2022/11/20 03:39:53;;;;;;;40.50;38.80;;;;;;;1.24;100.00;101077.59;5034092;28;20494;-44
2022/11/20 03:45:06;;;;;;;41.67;39.87;;;;;;;1.14;100.00;101081.94;5033300;28;20432;-44
2022/11/20 03:47:35;;;;;;;39.73;37.47;;;;;;;1.09;100.00;101086.75;5033129;28;20475;-47
2022/11/20 03:50:03;;;;;;;37.43;35.73;;;;;;;1.10;100.00;101080.56;5032572;28;20432;-45
2022/11/20 03:52:31;;;;;;;35.73;34.03;;;;;;;1.06;100.00;101084.38;5033119;28;20433;-44
2022/11/20 03:54:58;;;;;;;35.63;34.00;;;;;;;1.08;100.00;101082.44;5033209;28;20424;-43
2022/11/20 03:57:26;;;;;;;35.07;33.47;;;;;;;1.10;100.00;101081.38;5033004;28;20432;-45
2022/11/20 03:59:54;;;;;;;34.73;33.33;;;;;;;1.10;100.00;101080.56;5032859;28;20452;-45
2022/11/20 04:02:21;;;;;;;34.23;32.73;;;;;;;1.08;100.00;101079.81;5032130;28;20472;-44
2022/11/20 04:04:50;;;;;;;34.57;32.93;;;;;;;1.09;100.00;101077.09;5032916;28;20852;-44
2022/11/20 04:07:18;;;;;;;34.70;33.10;;;;;;;1.14;100.00;101076.69;5032793;28;20448;-44
2022/11/20 04:09:45;;;;;;;34.97;33.27;;;;;;;1.13;100.00;101081.09;5032524;28;21035;-43
2022/11/20 04:12:13;;;;;;;34.00;32.50;;;;;;;1.18;100.00;101078.09;5031934;28;20467;-44
2022/11/20 04:14:41;;;;;;;34.33;32.80;;;;;;;1.21;100.00;101079.66;5032514;28;20428;-45
2022/11/20 04:17:08;;;;;;;34.00;32.50;;;;;;;1.22;100.00;101076.91;5032523;28;20929;-44
2022/11/20 04:19:36;;;;;;;37.30;35.57;;;;;;;1.22;100.00;101076.91;5032342;28;20783;-44
2022/11/20 04:22:05;;;;;;;34.93;32.90;;;;;;;1.19;100.00;101076.31;5031801;28;20486;-43
2022/11/20 04:24:32;;;;;;;34.70;33.20;;;;;;;1.20;100.00;101070.94;5032451;28;20432;-43
2022/11/20 04:27:00;;;;;;;34.70;32.90;;;;;;;1.21;100.00;101077.00;5032407;28;20436;-47
2022/11/20 04:29:27;;;;;;;33.50;32.00;;;;;;;1.21;100.00;101075.22;5032384;28;20860;-45
2022/11/20 04:31:55;;;;;;;34.20;32.80;;;;;;;1.23;100.00;101072.47;5031794;28;20976;-43
2022/11/20 04:34:23;;;;;;;32.90;31.47;;;;;;;1.29;100.00;101080.66;5032370;28;20459;-45
2022/11/20 04:36:50;;;;;;;32.70;31.13;;;;;;;1.28;100.00;101075.56;5032080;28;20995;-45
2022/11/20 04:39:19;;;;;;;35.83;34.23;;;;;;;1.27;100.00;101072.09;5031998;28;20984;-43
2022/11/20 04:41:47;;;;;;;37.60;35.90;;;;;;;1.27;100.00;101068.63;5031515;28;20571;-44
2022/11/20 04:44:15;;;;;;;35.93;34.10;;;;;;;1.24;100.00;101069.72;5031946;28;20428;-43
2022/11/20 04:46:43;;;;;;;36.63;34.93;;;;;;;1.26;100.00;101065.16;5032302;28;20432;-44
2022/11/20 04:49:12;;;;;;;35.33;33.83;;;;;;;1.26;100.00;101062.53;5032009;28;20539;-42
2022/11/20 04:51:39;;;;;;;36.70;35.10;;;;;;;1.23;100.00;101070.66;5031389;28;20479;-44
2022/11/20 04:54:07;;;;;;;35.63;34.13;;;;;;;1.21;100.00;101067.34;5032277;28;20432;-43
2022/11/20 04:56:36;;;;;;;36.17;34.57;;;;;;;1.22;100.00;101063.78;5032061;28;20841;-44
2022/11/20 04:59:03;;;;;;;36.63;35.03;;;;;;;1.22;100.00;101066.41;5032006;28;20893;-47
2022/11/20 05:01:32;;;;;;;34.63;33.03;;;;;;;1.21;100.00;101051.59;5030728;28;21189;-46
2022/11/20 05:04:00;;;;;;;34.83;33.10;;;;;;;1.21;100.00;101059.47;5031894;28;20459;-45
2022/11/20 05:06:27;;;;;;;34.97;33.33;;;;;;;1.20;100.00;101060.41;5031745;28;20428;-44
2022/11/20 05:08:55;;;;;;;33.60;32.00;;;;;;;1.22;100.00;101055.06;5031619;28;20472;-42
2022/11/20 05:11:23;;;;;;;35.77;34.20;;;;;;;1.23;100.00;101054.91;5030573;28;20981;-42
2022/11/20 05:13:52;;;;;;;33.03;31.53;;;;;;;1.23;100.00;101043.56;5031669;28;20965;-44
2022/11/20 05:16:22;;;;;;;36.37;34.70;;;;;;;1.25;100.00;101057.41;5031843;28;20436;-43
2022/11/20 05:18:51;;;;;;;35.93;34.23;;;;;;;1.22;100.00;101045.38;5032007;28;20476;-44
2022/11/20 05:21:19;;;;;;;35.63;34.03;;;;;;;1.22;100.00;101047.16;5030524;28;20471;-43
2022/11/20 05:23:47;;;;;;;35.00;33.30;;;;;;;1.24;100.00;101046.06;5031396;28;20813;-43
2022/11/20 05:26:18;;;;;;;35.43;33.63;;;;;;;1.23;100.00;101038.31;5031768;28;20441;-43
2022/11/20 05:28:46;;;;;;;34.60;32.80;;;;;;;1.21;100.00;101042.88;5031617;28;20475;-42
2022/11/20 05:31:18;;;;;;;34.13;32.43;;;;;;;1.18;100.00;101051.84;5030331;28;20470;-42
2022/11/20 05:33:53;;;;;;;35.47;33.30;;;;;;;1.19;100.00;101047.44;5035549;28;20438;-43
2022/11/20 05:36:21;;;;;;;36.10;34.30;;;;;;;1.13;100.00;101043.53;5035393;28;20481;-43
2022/11/20 05:38:48;;;;;;;37.17;35.47;;;;;;;1.10;100.00;101043.78;5035288;28;20459;-43
2022/11/20 05:41:20;;;;;;;37.10;35.40;;;;;;;1.07;100.00;101038.78;5034310;28;20491;-42
2022/11/20 05:43:49;;;;;;;39.33;37.43;;;;;;;1.03;100.00;101042.63;5035581;28;20440;-45
2022/11/20 05:46:20;;;;;;;37.93;36.13;;;;;;;0.99;100.00;101034.16;5035332;28;20494;-43
2022/11/20 05:48:54;;;;;;;37.00;35.20;;;;;;;0.92;100.00;101038.28;5035050;28;20541;-43
2022/11/20 05:51:22;;;;;;;38.13;36.13;;;;;;;0.90;100.00;101034.09;5034039;28;20463;-43
2022/11/20 05:53:50;;;;;;;35.60;33.90;;;;;;;0.91;100.00;101027.88;5035261;28;20432;-42
2022/11/20 05:56:19;;;;;;;36.53;34.67;;;;;;;0.87;100.00;101024.69;5035217;28;20486;-43
2022/11/20 05:58:47;;;;;;;38.17;36.27;;;;;;;0.91;100.00;101033.13;5035128;28;20452;-43
2022/11/20 06:01:21;;;;;;;37.00;35.10;;;;;;;0.94;100.00;101035.50;5033438;28;20464;-42
2022/11/20 06:03:51;;;;;;;35.43;33.60;;;;;;;0.93;100.00;101032.03;5035244;28;20424;-43
2022/11/20 06:06:19;;;;;;;37.70;35.60;;;;;;;0.95;100.00;101029.31;5035155;28;20798;-43
2022/11/20 06:08:47;;;;;;;37.87;35.93;;;;;;;0.95;100.00;101024.06;5034795;28;20530;-43
2022/11/20 06:11:16;;;;;;;36.90;34.90;;;;;;;0.93;100.00;101028.56;5033169;28;20506;-42
2022/11/20 06:13:45;;;;;;;37.40;35.47;;;;;;;0.96;100.00;101028.31;5034800;28;20428;-42
2022/11/20 06:16:15;;;;;;;37.37;34.83;;;;;;;0.93;100.00;101020.69;5035009;28;20432;-44
2022/11/20 06:18:42;;;;;;;37.30;35.20;;;;;;;0.97;100.00;101024.75;5034815;28;20470;-43
2022/11/20 06:21:14;;;;;;;37.07;35.07;;;;;;;0.92;100.00;101026.94;5033250;28;20530;-45
2022/11/20 06:23:42;;;;;;;37.37;35.47;;;;;;;0.93;100.00;101023.31;5034664;28;20959;-43
2022/11/20 06:26:11;;;;;;;37.53;35.57;;;;;;;0.91;100.00;101014.75;5034509;28;20443;-43
2022/11/20 06:28:39;;;;;;;36.43;34.43;;;;;;;0.88;100.00;101028.97;5034585;28;20452;-42
2022/11/20 06:31:08;;;;;;;35.83;33.90;;;;;;;0.88;100.00;101028.13;5033171;28;20448;-43
2022/11/20 06:33:35;;;;;;;38.13;35.93;;;;;;;0.85;100.00;101025.75;5034622;28;20436;-43
2022/11/20 06:36:04;;;;;;;36.43;34.47;;;;;;;0.85;100.00;101031.00;5034570;28;20802;-43
2022/11/20 06:38:39;;;;;;;36.03;34.23;;;;;;;0.85;100.00;101031.00;5034221;28;20464;-42
2022/11/20 06:41:07;;;;;;;37.73;35.73;;;;;;;0.86;100.00;101030.91;5033266;28;20475;-45
2022/11/20 06:43:35;;;;;;;37.50;35.50;;;;;;;0.87;100.00;101023.84;5034244;28;20428;-45
2022/11/20 06:46:02;;;;;;;35.73;34.00;;;;;;;0.87;100.00;101032.56;5034368;28;20432;-43
2022/11/20 06:48:30;;;;;;;36.80;34.63;;;;;;;0.86;100.00;101025.66;5034117;28;20517;-44
2022/11/20 06:50:58;;;;;;;36.20;34.40;;;;;;;0.86;100.00;101024.81;5033421;28;20896;-42
2022/11/20 06:53:26;;;;;;;35.77;33.90;;;;;;;0.86;100.00;101025.66;5033690;28;20486;-42
2022/11/20 06:55:57;;;;;;;36.70;34.70;;;;;;;0.89;100.00;101030.66;5034276;28;20440;-46
2022/11/20 06:58:27;;;;;;;35.73;34.00;;;;;;;0.89;100.00;101021.94;5034201;28;20498;-42
2022/11/20 07:00:55;;;;;;;36.17;34.23;;;;;;;0.90;100.00;101013.91;5033393;28;20460;-44
2022/11/20 07:03:22;;;;;;;38.13;36.13;;;;;;;0.92;100.00;101024.31;5033945;28;20440;-44
2022/11/20 07:05:50;;;;;;;38.60;36.70;;;;;;;0.90;100.00;101018.31;5033805;28;20841;-44
2022/11/20 07:08:18;;;;;;;39.43;37.53;;;;;;;0.87;100.00;101016.78;5033862;28;20976;-42
2022/11/20 07:10:45;;;;;;;38.00;36.30;;;;;;;0.84;100.00;101010.97;5033312;28;20479;-44
2022/11/20 07:13:14;;;;;;;38.77;36.80;;;;;;;0.82;100.00;101013.72;5033870;28;20444;-43
2022/11/20 07:15:42;;;;;;;37.27;35.27;;;;;;;0.82;100.00;101005.84;5033779;28;20629;-44
2022/11/20 07:18:09;;;;;;;36.87;35.17;;;;;;;0.80;100.00;101001.69;5033544;28;20498;-42
2022/11/20 07:20:37;;;;;;;37.17;35.37;;;;;;;0.78;100.00;100999.19;5033329;28;20460;-45
2022/11/20 07:23:05;;;;;;;37.33;35.50;;;;;;;0.78;100.00;101000.97;5033426;28;20435;-42
2022/11/20 07:25:32;;;;;;;38.13;36.13;;;;;;;0.77;100.00;101005.41;5033440;28;20494;-42
2022/11/20 07:28:01;;;;;;;36.37;34.60;;;;;;;0.75;100.00;101002.06;5033517;28;20822;-42
2022/11/20 07:30:31;;;;;;;36.70;34.83;;;;;;;0.79;100.00;101007.91;5032888;28;20471;-44
2022/11/20 07:32:59;;;;;;;37.43;35.53;;;;;;;0.79;100.00;101013.16;5032959;28;20439;-44
2022/11/20 07:35:26;;;;;;;36.80;34.90;;;;;;;0.76;100.00;101006.38;5033567;28;20428;-43
2022/11/20 07:37:54;;;;;;;37.10;35.20;;;;;;;0.80;100.00;101010.41;5033220;28;20463;-45
2022/11/20 07:40:21;;;;;;;37.73;35.93;;;;;;;0.87;100.00;101016.78;5032972;28;20460;-44
2022/11/20 07:42:49;;;;;;;38.00;36.07;;;;;;;0.94;100.00;101020.59;5032915;28;20949;-42
2022/11/20 07:45:17;;;;;;;38.80;36.90;;;;;;;0.94;100.00;101017.13;5033142;28;20428;-44
2022/11/20 07:47:46;;;;;;;39.70;37.80;;;;;;;1.07;100.00;101028.28;5032889;28;20439;-43
2022/11/20 07:50:14;;;;;;;35.10;33.50;;;;;;;1.02;100.00;101026.03;5032750;28;20529;-43
2022/11/20 07:52:42;;;;;;;34.70;33.10;;;;;;;1.12;100.00;101039.22;5032707;28;20429;-43
2022/11/20 07:55:10;;;;;;;33.80;32.30;;;;;;;1.14;100.00;101024.16;5032301;28;20437;-43
2022/11/20 07:57:38;;;;;;;33.70;32.10;;;;;;;1.15;100.00;101023.22;5032891;28;20439;-44
2022/11/20 08:00:09;;;;;;;34.67;32.97;;;;;;;1.11;100.00;101020.00;5032331;28;20436;-43
2022/11/20 08:02:38;;;;;;;36.93;34.97;;;;;;;1.18;100.00;101030.81;5031534;28;20969;-43
2022/11/20 08:05:08;;;;;;;38.37;36.00;;;;;;;1.20;100.00;101028.91;5032694;28;20436;-45
2022/11/20 08:07:37;;;;;;;38.50;36.70;;;;;;;1.19;100.00;101031.66;5032667;28;20443;-43
2022/11/20 08:10:06;;;;;;;41.00;39.00;;;;;;;1.23;100.00;101030.44;5032143;28;20640;-45
2022/11/20 08:15:19;;;;;;;40.90;39.00;;;;;;;1.28;100.00;101018.59;5032884;28;20456;-44
2022/11/20 08:17:46;;;;;;;40.77;38.77;;;;;;;1.27;100.00;101022.16;5032150;28;20436;-43
2022/11/20 08:20:36;;;;;;;39.10;37.23;;;;;;;1.25;100.00;101025.91;5032263;28;20542;-45
2022/11/20 08:23:06;;;;;;;39.90;38.10;;;;;;;1.29;100.00;101025.50;5032206;28;20432;-44
2022/11/20 08:25:34;;;;;;;39.20;37.10;;;;;;;1.28;100.00;101021.22;5033001;28;20436;-45
2022/11/20 08:28:04;;;;;;;40.10;38.10;;;;;;;1.30;100.00;101021.06;5032326;28;21001;-43
2022/11/20 08:30:46;;;;;;;39.13;37.20;;;;;;;1.42;100.00;101028.75;5031064;28;20467;-43
2022/11/20 08:33:14;;;;;;;38.27;36.37;;;;;;;1.51;100.00;101027.97;5032167;28;20526;-43
2022/11/20 08:35:43;;;;;;;38.80;36.80;;;;;;;1.53;100.00;101033.91;5032476;28;20448;-43
2022/11/20 08:38:10;;;;;;;38.30;36.40;;;;;;;1.55;100.00;101033.78;5032105;28;20464;-42
2022/11/20 08:40:38;;;;;;;37.97;35.60;;;;;;;1.57;100.00;101031.84;5031826;28;20456;-44
2022/11/20 08:43:05;;;;;;;37.70;35.70;;;;;;;1.63;100.00;101033.97;5032023;28;20492;-42
2022/11/20 08:45:33;;;;;;;37.53;35.63;;;;;;;1.71;100.00;101035.91;5031681;28;20436;-42
2022/11/20 08:48:02;;;;;;;37.90;35.90;;;;;;;1.73;100.00;101040.09;5031779;28;20456;-42
2022/11/20 08:50:31;;;;;;;36.50;34.80;;;;;;;1.78;100.00;101039.69;5031600;28;20460;-43
2022/11/20 08:53:04;;;;;;;37.93;35.97;;;;;;;1.75;100.00;101030.28;5034375;28;20433;-43
2022/11/20 08:55:35;;;;;;;37.73;35.93;;;;;;;1.83;100.00;101032.22;5033783;28;20440;-43
2022/11/20 08:58:04;;;;;;;37.17;35.37;;;;;;;1.82;100.00;101031.41;5032110;28;20470;-42
2022/11/20 09:00:32;;;;;;;37.97;36.00;;;;;;;1.94;100.00;101034.78;5029030;28;20492;-43
2022/11/20 09:03:00;;;;;;;37.70;35.80;;;;;;;1.94;100.00;101037.41;5048363;28;20997;-42
2022/11/20 09:05:29;;;;;;;38.00;36.20;;;;;;;1.88;100.00;101038.75;5036052;28;20524;-44
2022/11/20 09:07:57;;;;;;;35.90;34.20;;;;;;;1.91;100.00;101038.47;5031573;28;20456;-42
2022/11/20 09:10:26;;;;;;;35.00;33.40;;;;;;;1.87;100.00;101036.25;5030740;28;20475;-44
2022/11/20 09:12:55;;;;;;;37.17;35.47;;;;;;;1.90;100.00;101038.63;5031706;28;20494;-42
2022/11/20 09:15:23;;;;;;;37.60;35.90;;;;;;;1.96;100.00;101038.09;5031775;28;20774;-43
2022/11/20 09:17:54;;;;;;;39.30;37.50;;;;;;;2.05;100.00;101048.66;5031444;28;20466;-44
2022/11/20 09:20:22;;;;;;;39.70;37.90;;;;;;;2.14;100.00;101044.38;5031068;28;20485;-43
2022/11/20 09:22:49;;;;;;;39.03;37.20;;;;;;;2.16;100.00;101061.69;5031446;28;20439;-43
2022/11/20 09:25:17;;;;;;;37.30;35.70;;;;;;;2.11;100.00;101053.38;5031374;28;20483;-43
2022/11/20 09:27:46;;;;;;;41.50;39.47;;;;;;;2.08;100.00;101052.81;5031394;28;20964;-46
2022/11/20 09:30:15;;;;;;;36.87;35.17;;;;;;;2.01;100.00;101057.75;5030075;28;20462;-46
2022/11/20 09:32:44;;;;;;;38.80;37.00;;;;;;;2.03;100.00;101061.06;5030916;28;20486;-43
2022/11/20 09:35:11;;;;;;;39.03;37.07;;;;;;;2.03;100.00;101061.06;5031469;28;20436;-43
2022/11/20 09:37:39;;;;;;;37.30;35.60;;;;;;;1.95;100.00;101052.19;5031194;28;20432;-43
2022/11/20 09:40:17;;;;;;;36.50;34.80;;;;;;;1.94;100.00;101055.81;5030702;28;20930;-43
2022/11/20 09:42:53;;;;;;;37.10;35.30;;;;;;;1.92;100.00;101047.19;5030848;28;20482;-44
2022/11/20 09:45:26;;;;;;;35.40;34.00;;;;;;;1.92;100.00;101047.19;5030706;28;20494;-46
2022/11/20 09:48:18;;;;;;;38.80;36.87;;;;;;;1.98;100.00;101052.78;5030064;28;20447;-44
2022/11/20 09:50:50;;;;;;;39.60;37.90;;;;;;;2.05;100.00;101053.91;5030930;28;20484;-45
2022/11/20 09:53:27;;;;;;;38.03;36.43;;;;;;;2.04;100.00;101060.13;5031437;28;20849;-46
2022/11/20 09:55:56;;;;;;;37.57;36.07;;;;;;;2.01;100.00;101059.56;5011705;28;20446;-45
2022/11/20 09:58:32;;;;;;;35.33;33.73;;;;;;;1.93;100.00;101041.81;5011626;28;20457;-44
2022/11/20 10:01:10;;;;;;;34.30;32.90;;;;;;;1.87;100.00;101055.50;5010427;28;20471;-46
2022/11/20 10:03:46;;;;;;;34.00;32.50;;;;;;;1.83;100.00;101051.47;5011595;28;20428;-44
2022/11/20 10:06:17;;;;;;;34.97;33.40;;;;;;;1.87;100.00;101050.25;5011759;28;20429;-43
2022/11/20 10:08:49;;;;;;;34.90;33.20;;;;;;;1.90;100.00;101044.72;5011534;28;20970;-44
2022/11/20 10:11:25;;;;;;;34.53;33.03;;;;;;;1.85;100.00;101040.84;5010644;28;20480;-45
2022/11/20 10:14:04;;;;;;;34.80;33.17;;;;;;;1.84;100.00;101047.88;5011188;28;20428;-45
2022/11/20 10:16:43;;;;;;;35.53;34.00;;;;;;;1.77;100.00;101038.84;5011612;28;20429;-44
2022/11/20 10:19:27;;;;;;;34.00;32.57;;;;;;;1.83;100.00;101042.75;5014079;28;20449;-45
2022/11/20 10:22:04;;;;;;;33.90;32.20;;;;;;;1.92;100.00;101031.44;5014511;28;20464;-45
2022/11/20 10:24:52;;;;;;;32.97;31.50;;;;;;;2.12;100.00;101041.06;5015078;28;20425;-44
2022/11/20 10:27:41;;;;;;;33.80;32.50;;;;;;;2.07;100.00;101035.34;5014850;28;20421;-46
2022/11/20 10:30:12;;;;;;;34.13;32.67;;;;;;;2.12;100.00;101038.44;5014127;28;20424;-43
2022/11/20 10:32:43;;;;;;;33.63;32.10;;;;;;;2.23;100.00;101030.41;5014754;28;20479;-44
2022/11/20 10:35:21;;;;;;;34.87;33.17;;;;;;;2.22;100.00;101029.56;5014938;28;20463;-46
2022/11/20 10:37:52;;;;;;;36.40;34.93;;;;;;;2.19;100.00;101023.75;5014817;28;20425;-46
2022/11/20 10:40:26;;;;;;;33.90;32.60;;;;;;;2.26;100.00;101030.13;5014027;28;20456;-45
2022/11/20 10:42:57;;;;;;;35.03;33.50;;;;;;;2.29;100.00;101019.34;5014231;28;20487;-45
2022/11/20 10:45:37;;;;;;;33.70;32.30;;;;;;;2.46;100.00;101010.75;5015029;28;20484;-47
2022/11/20 10:48:16;;;;;;;33.47;32.17;;;;;;;2.47;100.00;101016.84;5014595;28;20456;-46
2022/11/20 10:51:09;;;;;;;33.10;31.80;;;;;;;2.61;100.00;101013.81;5014060;28;20989;-45
2022/11/20 10:53:59;;;;;;;32.93;31.47;;;;;;;2.61;100.00;101014.63;5025169;28;20428;-46
2022/11/20 10:56:35;;;;;;;31.40;30.23;;;;;;;2.61;100.00;101009.38;5033923;28;20440;-46
2022/11/20 10:59:30;;;;;;;31.60;30.13;;;;;;;2.52;100.00;100996.22;5033468;28;20546;-44
2022/11/20 11:01:58;;;;;;;28.03;27.03;;;;;;;2.59;100.00;101011.31;5033325;28;20510;-43
2022/11/20 11:04:36;;;;;;;30.40;29.20;;;;;;;2.70;100.00;101005.91;5034129;28;20535;-47
2022/11/20 11:07:11;;;;;;;28.50;27.43;;;;;;;2.81;100.00;101004.13;5034241;28;20801;-47
2022/11/20 11:09:44;;;;;;;26.10;25.30;;;;;;;2.83;100.00;100991.63;5033844;28;20455;-46
2022/11/20 11:12:12;;;;;;;26.87;25.97;;;;;;;2.96;100.00;100992.13;5032739;28;20884;-44
2022/11/20 11:14:45;;;;;;;27.43;26.43;;;;;;;2.96;98.58;100992.13;5033838;28;20436;-43
2022/11/20 11:17:31;;;;;;;28.33;27.33;;;;;;;3.02;100.00;100986.31;5033697;28;20466;-46
2022/11/20 11:20:08;;;;;;;26.43;25.53;;;;;;;2.97;100.00;100988.53;5033563;28;20444;-44
2022/11/20 11:22:45;;;;;;;26.93;25.93;;;;;;;3.00;100.00;100981.19;5033606;28;20909;-45
2022/11/20 11:25:21;;;;;;;27.47;26.47;;;;;;;2.94;100.00;100981.75;5033646;28;20428;-45
2022/11/20 11:27:51;;;;;;;26.23;25.33;;;;;;;2.90;100.00;100975.09;5033131;28;20925;-46
2022/11/20 11:30:20;;;;;;;28.37;27.40;;;;;;;2.88;100.00;100974.41;5031942;28;20800;-45
2022/11/20 11:32:50;;;;;;;27.70;26.70;;;;;;;3.07;100.00;100978.81;5033078;28;20981;-44